sensor_id;sensor_type;location;lat;lon;timestamp;P1;durP1;ratioP1;P2;durP2;ratioP2
53281;SDS011;39167;52.794;6.892;2023-05-07T00:01:02;15.10;;;11.15;;
53281;SDS011;39167;52.794;6.892;2023-05-07T00:03:28;15.77;;;11.50;;
53281;SDS011;39167;52.794;6.892;2023-05-07T00:05:54;15.70;;;11.70;;
53281;SDS011;39167;52.794;6.892;2023-05-07T00:08:19;15.20;;;11.57;;
53281;SDS011;39167;52.794;6.892;2023-05-07T00:10:45;16.40;;;11.63;;
53281;SDS011;39167;52.794;6.892;2023-05-07T00:13:11;18.13;;;12.45;;
53281;SDS011;39167;52.794;6.892;2023-05-07T00:15:37;16.77;;;11.48;;
53281;SDS011;39167;52.794;6.892;2023-05-07T00:18:03;19.15;;;13.27;;
53281;SDS011;39167;52.794;6.892;2023-05-07T00:20:29;18.75;;;12.43;;
53281;SDS011;39167;52.794;6.892;2023-05-07T00:22:54;17.95;;;13.13;;
53281;SDS011;39167;52.794;6.892;2023-05-07T00:25:20;18.60;;;13.65;;
53281;SDS011;39167;52.794;6.892;2023-05-07T00:27:46;18.52;;;14.07;;
53281;SDS011;39167;52.794;6.892;2023-05-07T00:30:12;19.63;;;13.10;;
53281;SDS011;39167;52.794;6.892;2023-05-07T00:32:38;21.10;;;13.60;;
53281;SDS011;39167;52.794;6.892;2023-05-07T00:35:04;19.50;;;13.35;;
53281;SDS011;39167;52.794;6.892;2023-05-07T00:37:30;20.00;;;14.88;;
53281;SDS011;39167;52.794;6.892;2023-05-07T00:39:56;18.02;;;13.63;;
53281;SDS011;39167;52.794;6.892;2023-05-07T00:42:22;18.50;;;14.10;;
53281;SDS011;39167;52.794;6.892;2023-05-07T00:44:49;17.70;;;14.02;;
53281;SDS011;39167;52.794;6.892;2023-05-07T00:47:15;18.55;;;14.63;;
53281;SDS011;39167;52.794;6.892;2023-05-07T00:49:44;20.48;;;14.57;;
53281;SDS011;39167;52.794;6.892;2023-05-07T00:52:11;20.70;;;14.95;;
53281;SDS011;39167;52.794;6.892;2023-05-07T00:54:40;18.27;;;14.23;;
53281;SDS011;39167;52.794;6.892;2023-05-07T00:57:06;17.38;;;13.85;;
53281;SDS011;39167;52.794;6.892;2023-05-07T00:59:34;20.77;;;15.88;;
53281;SDS011;39167;52.794;6.892;2023-05-07T01:02:00;19.77;;;14.93;;
53281;SDS011;39167;52.794;6.892;2023-05-07T01:04:26;20.75;;;14.75;;
53281;SDS011;39167;52.794;6.892;2023-05-07T01:06:52;18.48;;;14.88;;
53281;SDS011;39167;52.794;6.892;2023-05-07T01:09:21;18.90;;;15.00;;
53281;SDS011;39167;52.794;6.892;2023-05-07T01:11:48;20.15;;;14.90;;
53281;SDS011;39167;52.794;6.892;2023-05-07T01:14:15;19.92;;;15.35;;
53281;SDS011;39167;52.794;6.892;2023-05-07T01:16:42;21.33;;;16.02;;
53281;SDS011;39167;52.794;6.892;2023-05-07T01:19:08;22.35;;;16.48;;
53281;SDS011;39167;52.794;6.892;2023-05-07T01:21:35;23.60;;;17.27;;
53281;SDS011;39167;52.794;6.892;2023-05-07T01:24:06;22.30;;;17.20;;
53281;SDS011;39167;52.794;6.892;2023-05-07T01:26:32;24.80;;;17.08;;
53281;SDS011;39167;52.794;6.892;2023-05-07T01:28:58;25.83;;;17.63;;
53281;SDS011;39167;52.794;6.892;2023-05-07T01:31:23;22.55;;;16.23;;
53281;SDS011;39167;52.794;6.892;2023-05-07T01:33:49;25.20;;;18.52;;
53281;SDS011;39167;52.794;6.892;2023-05-07T01:36:20;22.48;;;16.98;;
53281;SDS011;39167;52.794;6.892;2023-05-07T01:38:48;26.02;;;18.17;;
53281;SDS011;39167;52.794;6.892;2023-05-07T01:41:14;22.33;;;17.15;;
53281;SDS011;39167;52.794;6.892;2023-05-07T01:43:40;22.50;;;17.70;;
53281;SDS011;39167;52.794;6.892;2023-05-07T01:46:07;22.08;;;17.33;;
53281;SDS011;39167;52.794;6.892;2023-05-07T01:48:35;23.63;;;17.40;;
53281;SDS011;39167;52.794;6.892;2023-05-07T01:51:01;29.77;;;19.33;;
53281;SDS011;39167;52.794;6.892;2023-05-07T01:53:28;25.02;;;18.55;;
53281;SDS011;39167;52.794;6.892;2023-05-07T01:55:53;24.10;;;18.77;;
53281;SDS011;39167;52.794;6.892;2023-05-07T01:58:19;27.48;;;19.35;;
53281;SDS011;39167;52.794;6.892;2023-05-07T02:00:45;27.63;;;19.02;;
53281;SDS011;39167;52.794;6.892;2023-05-07T02:03:11;24.92;;;19.77;;
53281;SDS011;39167;52.794;6.892;2023-05-07T02:05:47;26.48;;;20.05;;
53281;SDS011;39167;52.794;6.892;2023-05-07T02:08:16;26.23;;;19.40;;
53281;SDS011;39167;52.794;6.892;2023-05-07T02:10:44;28.00;;;20.75;;
53281;SDS011;39167;52.794;6.892;2023-05-07T02:13:10;25.80;;;19.58;;
53281;SDS011;39167;52.794;6.892;2023-05-07T02:15:36;26.75;;;19.77;;
53281;SDS011;39167;52.794;6.892;2023-05-07T02:18:02;25.13;;;18.48;;
53281;SDS011;39167;52.794;6.892;2023-05-07T02:20:29;26.77;;;20.05;;
53281;SDS011;39167;52.794;6.892;2023-05-07T02:22:55;29.23;;;20.63;;
53281;SDS011;39167;52.794;6.892;2023-05-07T02:25:21;25.55;;;18.63;;
53281;SDS011;39167;52.794;6.892;2023-05-07T02:27:47;25.65;;;19.58;;
53281;SDS011;39167;52.794;6.892;2023-05-07T02:30:13;28.13;;;21.13;;
53281;SDS011;39167;52.794;6.892;2023-05-07T02:32:39;29.02;;;20.92;;
53281;SDS011;39167;52.794;6.892;2023-05-07T02:35:05;31.42;;;21.25;;
53281;SDS011;39167;52.794;6.892;2023-05-07T02:37:31;30.92;;;22.10;;
53281;SDS011;39167;52.794;6.892;2023-05-07T02:39:57;30.60;;;22.60;;
53281;SDS011;39167;52.794;6.892;2023-05-07T02:42:22;33.28;;;22.63;;
53281;SDS011;39167;52.794;6.892;2023-05-07T02:44:48;31.00;;;22.40;;
53281;SDS011;39167;52.794;6.892;2023-05-07T02:47:14;32.83;;;23.38;;
53281;SDS011;39167;52.794;6.892;2023-05-07T02:49:40;32.33;;;22.75;;
53281;SDS011;39167;52.794;6.892;2023-05-07T02:52:06;32.30;;;23.05;;
53281;SDS011;39167;52.794;6.892;2023-05-07T02:54:33;30.15;;;21.60;;
53281;SDS011;39167;52.794;6.892;2023-05-07T02:56:58;38.35;;;25.45;;
53281;SDS011;39167;52.794;6.892;2023-05-07T02:59:26;36.60;;;24.63;;
53281;SDS011;39167;52.794;6.892;2023-05-07T03:01:51;32.60;;;24.50;;
53281;SDS011;39167;52.794;6.892;2023-05-07T03:04:19;33.63;;;23.95;;
53281;SDS011;39167;52.794;6.892;2023-05-07T03:06:48;34.28;;;25.30;;
53281;SDS011;39167;52.794;6.892;2023-05-07T03:09:13;35.13;;;24.48;;
53281;SDS011;39167;52.794;6.892;2023-05-07T03:11:39;37.30;;;25.33;;
53281;SDS011;39167;52.794;6.892;2023-05-07T03:14:05;35.90;;;25.08;;
53281;SDS011;39167;52.794;6.892;2023-05-07T03:16:31;36.78;;;25.42;;
53281;SDS011;39167;52.794;6.892;2023-05-07T03:18:59;37.45;;;24.65;;
53281;SDS011;39167;52.794;6.892;2023-05-07T03:21:24;33.95;;;24.30;;
53281;SDS011;39167;52.794;6.892;2023-05-07T03:23:51;35.65;;;25.88;;
53281;SDS011;39167;52.794;6.892;2023-05-07T03:26:20;36.15;;;23.95;;
53281;SDS011;39167;52.794;6.892;2023-05-07T03:28:46;36.13;;;25.70;;
53281;SDS011;39167;52.794;6.892;2023-05-07T03:31:12;34.65;;;24.30;;
53281;SDS011;39167;52.794;6.892;2023-05-07T03:33:39;34.15;;;24.58;;
53281;SDS011;39167;52.794;6.892;2023-05-07T03:36:21;35.03;;;25.52;;
53281;SDS011;39167;52.794;6.892;2023-05-07T03:38:48;36.28;;;23.60;;
53281;SDS011;39167;52.794;6.892;2023-05-07T03:41:15;37.17;;;24.33;;
53281;SDS011;39167;52.794;6.892;2023-05-07T03:43:41;38.55;;;25.52;;
53281;SDS011;39167;52.794;6.892;2023-05-07T03:46:06;32.40;;;24.38;;
53281;SDS011;39167;52.794;6.892;2023-05-07T03:48:32;37.38;;;25.08;;
53281;SDS011;39167;52.794;6.892;2023-05-07T03:50:58;33.78;;;24.52;;
53281;SDS011;39167;52.794;6.892;2023-05-07T03:53:24;34.80;;;23.75;;
53281;SDS011;39167;52.794;6.892;2023-05-07T03:55:50;33.20;;;23.38;;
53281;SDS011;39167;52.794;6.892;2023-05-07T03:58:16;33.40;;;24.23;;
53281;SDS011;39167;52.794;6.892;2023-05-07T04:00:42;31.25;;;22.50;;
53281;SDS011;39167;52.794;6.892;2023-05-07T04:03:07;34.10;;;23.88;;
53281;SDS011;39167;52.794;6.892;2023-05-07T04:05:33;35.88;;;25.33;;
53281;SDS011;39167;52.794;6.892;2023-05-07T04:07:59;31.23;;;23.45;;
53281;SDS011;39167;52.794;6.892;2023-05-07T04:10:26;35.53;;;24.08;;
53281;SDS011;39167;52.794;6.892;2023-05-07T04:12:53;33.63;;;23.73;;
53281;SDS011;39167;52.794;6.892;2023-05-07T04:15:19;33.95;;;22.67;;
53281;SDS011;39167;52.794;6.892;2023-05-07T04:17:45;28.55;;;21.80;;
53281;SDS011;39167;52.794;6.892;2023-05-07T04:20:14;31.35;;;22.65;;
53281;SDS011;39167;52.794;6.892;2023-05-07T04:22:41;29.42;;;20.63;;
53281;SDS011;39167;52.794;6.892;2023-05-07T04:25:07;29.75;;;21.92;;
53281;SDS011;39167;52.794;6.892;2023-05-07T04:27:34;31.52;;;21.23;;
53281;SDS011;39167;52.794;6.892;2023-05-07T04:30:01;31.35;;;21.15;;
53281;SDS011;39167;52.794;6.892;2023-05-07T04:32:27;28.17;;;20.63;;
53281;SDS011;39167;52.794;6.892;2023-05-07T04:34:54;28.52;;;21.30;;
53281;SDS011;39167;52.794;6.892;2023-05-07T04:37:20;29.38;;;20.70;;
53281;SDS011;39167;52.794;6.892;2023-05-07T04:39:47;26.45;;;20.25;;
53281;SDS011;39167;52.794;6.892;2023-05-07T04:42:16;29.88;;;20.52;;
53281;SDS011;39167;52.794;6.892;2023-05-07T04:44:43;28.42;;;20.77;;
53281;SDS011;39167;52.794;6.892;2023-05-07T04:47:10;28.00;;;20.73;;
53281;SDS011;39167;52.794;6.892;2023-05-07T04:49:36;26.42;;;19.95;;
53281;SDS011;39167;52.794;6.892;2023-05-07T04:52:03;28.13;;;20.65;;
53281;SDS011;39167;52.794;6.892;2023-05-07T04:54:29;32.80;;;20.15;;
53281;SDS011;39167;52.794;6.892;2023-05-07T04:56:55;28.02;;;20.25;;
53281;SDS011;39167;52.794;6.892;2023-05-07T04:59:21;26.88;;;19.00;;
53281;SDS011;39167;52.794;6.892;2023-05-07T05:01:49;30.40;;;20.60;;
53281;SDS011;39167;52.794;6.892;2023-05-07T05:04:14;27.48;;;19.88;;
53281;SDS011;39167;52.794;6.892;2023-05-07T05:06:40;26.92;;;20.00;;
53281;SDS011;39167;52.794;6.892;2023-05-07T05:09:06;28.83;;;20.17;;
53281;SDS011;39167;52.794;6.892;2023-05-07T05:11:34;29.92;;;21.20;;
53281;SDS011;39167;52.794;6.892;2023-05-07T05:14:00;29.38;;;20.80;;
53281;SDS011;39167;52.794;6.892;2023-05-07T05:16:27;28.88;;;20.88;;
53281;SDS011;39167;52.794;6.892;2023-05-07T05:18:52;27.08;;;19.83;;
53281;SDS011;39167;52.794;6.892;2023-05-07T05:21:20;29.55;;;21.42;;
53281;SDS011;39167;52.794;6.892;2023-05-07T05:23:46;30.52;;;20.83;;
53281;SDS011;39167;52.794;6.892;2023-05-07T05:26:12;28.77;;;21.15;;
53281;SDS011;39167;52.794;6.892;2023-05-07T05:28:38;29.70;;;21.45;;
53281;SDS011;39167;52.794;6.892;2023-05-07T05:31:06;27.02;;;20.08;;
53281;SDS011;39167;52.794;6.892;2023-05-07T05:33:31;30.90;;;21.10;;
53281;SDS011;39167;52.794;6.892;2023-05-07T05:35:57;29.15;;;21.35;;
53281;SDS011;39167;52.794;6.892;2023-05-07T05:38:23;28.75;;;21.05;;
53281;SDS011;39167;52.794;6.892;2023-05-07T05:40:52;30.48;;;21.20;;
53281;SDS011;39167;52.794;6.892;2023-05-07T05:43:17;32.72;;;22.85;;
53281;SDS011;39167;52.794;6.892;2023-05-07T05:45:43;31.05;;;20.30;;
53281;SDS011;39167;52.794;6.892;2023-05-07T05:48:09;35.35;;;23.05;;
53281;SDS011;39167;52.794;6.892;2023-05-07T05:50:35;31.55;;;21.70;;
53281;SDS011;39167;52.794;6.892;2023-05-07T05:53:01;30.67;;;22.73;;
53281;SDS011;39167;52.794;6.892;2023-05-07T05:55:27;33.28;;;23.02;;
53281;SDS011;39167;52.794;6.892;2023-05-07T05:57:53;31.70;;;23.13;;
53281;SDS011;39167;52.794;6.892;2023-05-07T06:00:20;28.95;;;20.73;;
53281;SDS011;39167;52.794;6.892;2023-05-07T06:02:47;28.85;;;21.77;;
53281;SDS011;39167;52.794;6.892;2023-05-07T06:05:16;29.70;;;22.15;;
53281;SDS011;39167;52.794;6.892;2023-05-07T06:07:42;32.97;;;22.20;;
53281;SDS011;39167;52.794;6.892;2023-05-07T06:10:08;35.03;;;23.23;;
53281;SDS011;39167;52.794;6.892;2023-05-07T06:12:33;30.88;;;22.77;;
53281;SDS011;39167;52.794;6.892;2023-05-07T06:15:07;32.70;;;22.98;;
53281;SDS011;39167;52.794;6.892;2023-05-07T06:17:35;30.35;;;23.00;;
53281;SDS011;39167;52.794;6.892;2023-05-07T06:20:00;32.88;;;22.80;;
53281;SDS011;39167;52.794;6.892;2023-05-07T06:22:26;31.58;;;22.20;;
53281;SDS011;39167;52.794;6.892;2023-05-07T06:24:52;35.15;;;24.33;;
53281;SDS011;39167;52.794;6.892;2023-05-07T06:27:18;35.60;;;22.90;;
53281;SDS011;39167;52.794;6.892;2023-05-07T06:29:43;33.65;;;23.33;;
53281;SDS011;39167;52.794;6.892;2023-05-07T06:32:17;31.10;;;22.58;;
53281;SDS011;39167;52.794;6.892;2023-05-07T06:34:43;35.28;;;23.40;;
53281;SDS011;39167;52.794;6.892;2023-05-07T06:37:08;35.13;;;23.40;;
53281;SDS011;39167;52.794;6.892;2023-05-07T06:39:34;32.88;;;24.38;;
53281;SDS011;39167;52.794;6.892;2023-05-07T06:42:00;34.35;;;23.63;;
53281;SDS011;39167;52.794;6.892;2023-05-07T06:44:27;36.92;;;25.75;;
53281;SDS011;39167;52.794;6.892;2023-05-07T06:46:53;37.85;;;25.75;;
53281;SDS011;39167;52.794;6.892;2023-05-07T06:49:18;35.72;;;24.27;;
53281;SDS011;39167;52.794;6.892;2023-05-07T06:51:44;33.20;;;24.02;;
53281;SDS011;39167;52.794;6.892;2023-05-07T06:54:10;36.28;;;24.83;;
53281;SDS011;39167;52.794;6.892;2023-05-07T06:56:38;35.45;;;25.10;;
53281;SDS011;39167;52.794;6.892;2023-05-07T06:59:06;33.90;;;25.55;;
53281;SDS011;39167;52.794;6.892;2023-05-07T07:01:31;34.13;;;24.42;;
53281;SDS011;39167;52.794;6.892;2023-05-07T07:03:57;35.05;;;25.05;;
53281;SDS011;39167;52.794;6.892;2023-05-07T07:06:23;34.25;;;23.42;;
53281;SDS011;39167;52.794;6.892;2023-05-07T07:08:49;36.97;;;25.48;;
53281;SDS011;39167;52.794;6.892;2023-05-07T07:11:15;35.67;;;24.20;;
53281;SDS011;39167;52.794;6.892;2023-05-07T07:13:40;36.95;;;24.83;;
53281;SDS011;39167;52.794;6.892;2023-05-07T07:16:07;36.53;;;25.08;;
53281;SDS011;39167;52.794;6.892;2023-05-07T07:18:33;36.30;;;25.60;;
53281;SDS011;39167;52.794;6.892;2023-05-07T07:20:59;39.15;;;25.38;;
53281;SDS011;39167;52.794;6.892;2023-05-07T07:23:25;37.20;;;25.67;;
53281;SDS011;39167;52.794;6.892;2023-05-07T07:25:50;36.78;;;25.45;;
53281;SDS011;39167;52.794;6.892;2023-05-07T07:28:41;33.30;;;24.30;;
53281;SDS011;39167;52.794;6.892;2023-05-07T07:31:08;38.38;;;24.30;;
53281;SDS011;39167;52.794;6.892;2023-05-07T07:33:34;34.83;;;24.67;;
53281;SDS011;39167;52.794;6.892;2023-05-07T07:36:00;34.00;;;24.42;;
53281;SDS011;39167;52.794;6.892;2023-05-07T07:38:26;34.35;;;23.95;;
53281;SDS011;39167;52.794;6.892;2023-05-07T07:40:51;35.67;;;24.48;;
53281;SDS011;39167;52.794;6.892;2023-05-07T07:43:17;36.08;;;25.55;;
53281;SDS011;39167;52.794;6.892;2023-05-07T07:50:54;35.03;;;24.65;;
53281;SDS011;39167;52.794;6.892;2023-05-07T07:53:20;36.20;;;25.67;;
53281;SDS011;39167;52.794;6.892;2023-05-07T07:55:45;34.22;;;25.90;;
53281;SDS011;39167;52.794;6.892;2023-05-07T07:58:20;33.78;;;23.67;;
53281;SDS011;39167;52.794;6.892;2023-05-07T08:00:47;32.35;;;24.63;;
53281;SDS011;39167;52.794;6.892;2023-05-07T08:03:12;32.00;;;24.42;;
53281;SDS011;39167;52.794;6.892;2023-05-07T08:05:39;33.92;;;24.63;;
53281;SDS011;39167;52.794;6.892;2023-05-07T08:08:05;33.33;;;24.45;;
53281;SDS011;39167;52.794;6.892;2023-05-07T08:10:31;32.88;;;23.35;;
53281;SDS011;39167;52.794;6.892;2023-05-07T08:13:00;34.08;;;24.45;;
53281;SDS011;39167;52.794;6.892;2023-05-07T08:15:25;34.72;;;24.33;;
53281;SDS011;39167;52.794;6.892;2023-05-07T08:17:57;32.63;;;24.30;;
53281;SDS011;39167;52.794;6.892;2023-05-07T08:20:25;33.78;;;24.13;;
53281;SDS011;39167;52.794;6.892;2023-05-07T08:22:54;32.60;;;23.85;;
53281;SDS011;39167;52.794;6.892;2023-05-07T08:25:19;33.53;;;24.35;;
53281;SDS011;39167;52.794;6.892;2023-05-07T08:27:45;33.45;;;23.65;;
53281;SDS011;39167;52.794;6.892;2023-05-07T08:30:11;33.55;;;25.02;;
53281;SDS011;39167;52.794;6.892;2023-05-07T08:32:37;33.78;;;23.60;;
53281;SDS011;39167;52.794;6.892;2023-05-07T08:35:03;34.75;;;24.05;;
53281;SDS011;39167;52.794;6.892;2023-05-07T08:37:29;31.20;;;22.45;;
53281;SDS011;39167;52.794;6.892;2023-05-07T08:39:57;34.42;;;22.75;;
53281;SDS011;39167;52.794;6.892;2023-05-07T08:42:23;31.58;;;22.23;;
53281;SDS011;39167;52.794;6.892;2023-05-07T08:44:51;28.63;;;21.95;;
53281;SDS011;39167;52.794;6.892;2023-05-07T08:47:18;32.60;;;22.70;;
53281;SDS011;39167;52.794;6.892;2023-05-07T08:49:45;30.40;;;21.65;;
53281;SDS011;39167;52.794;6.892;2023-05-07T08:52:12;27.88;;;21.50;;
53281;SDS011;39167;52.794;6.892;2023-05-07T08:54:38;28.95;;;22.20;;
53281;SDS011;39167;52.794;6.892;2023-05-07T08:57:04;31.05;;;21.98;;
53281;SDS011;39167;52.794;6.892;2023-05-07T08:59:30;28.70;;;21.23;;
53281;SDS011;39167;52.794;6.892;2023-05-07T09:01:56;36.85;;;21.52;;
53281;SDS011;39167;52.794;6.892;2023-05-07T09:04:22;32.67;;;21.42;;
53281;SDS011;39167;52.794;6.892;2023-05-07T09:06:47;29.42;;;20.33;;
53281;SDS011;39167;52.794;6.892;2023-05-07T09:09:16;31.35;;;22.13;;
53281;SDS011;39167;52.794;6.892;2023-05-07T09:11:43;29.10;;;21.20;;
53281;SDS011;39167;52.794;6.892;2023-05-07T09:14:09;28.63;;;20.90;;
53281;SDS011;39167;52.794;6.892;2023-05-07T09:16:35;28.30;;;20.08;;
53281;SDS011;39167;52.794;6.892;2023-05-07T09:19:01;26.80;;;19.02;;
53281;SDS011;39167;52.794;6.892;2023-05-07T09:21:26;31.30;;;20.00;;
53281;SDS011;39167;52.794;6.892;2023-05-07T09:23:53;26.63;;;20.40;;
53281;SDS011;39167;52.794;6.892;2023-05-07T09:26:23;26.35;;;20.30;;
53281;SDS011;39167;52.794;6.892;2023-05-07T09:28:50;31.35;;;19.15;;
53281;SDS011;39167;52.794;6.892;2023-05-07T09:31:16;28.35;;;19.45;;
53281;SDS011;39167;52.794;6.892;2023-05-07T09:33:42;25.08;;;20.40;;
53281;SDS011;39167;52.794;6.892;2023-05-07T09:36:08;25.48;;;18.63;;
53281;SDS011;39167;52.794;6.892;2023-05-07T09:38:35;24.98;;;18.15;;
53281;SDS011;39167;52.794;6.892;2023-05-07T09:41:09;25.52;;;19.45;;
53281;SDS011;39167;52.794;6.892;2023-05-07T09:43:38;23.75;;;18.08;;
53281;SDS011;39167;52.794;6.892;2023-05-07T09:46:11;25.48;;;18.40;;
53281;SDS011;39167;52.794;6.892;2023-05-07T09:48:39;22.67;;;17.48;;
53281;SDS011;39167;52.794;6.892;2023-05-07T09:51:09;25.67;;;18.13;;
53281;SDS011;39167;52.794;6.892;2023-05-07T09:53:43;24.05;;;18.17;;
53281;SDS011;39167;52.794;6.892;2023-05-07T09:56:11;25.98;;;18.33;;
53281;SDS011;39167;52.794;6.892;2023-05-07T09:58:38;24.88;;;16.85;;
53281;SDS011;39167;52.794;6.892;2023-05-07T10:01:06;26.52;;;17.90;;
53281;SDS011;39167;52.794;6.892;2023-05-07T10:03:32;24.17;;;17.55;;
53281;SDS011;39167;52.794;6.892;2023-05-07T10:06:00;24.42;;;18.17;;
53281;SDS011;39167;52.794;6.892;2023-05-07T10:08:26;22.73;;;18.13;;
53281;SDS011;39167;52.794;6.892;2023-05-07T10:10:53;22.95;;;17.45;;
53281;SDS011;39167;52.794;6.892;2023-05-07T10:13:19;24.50;;;17.48;;
53281;SDS011;39167;52.794;6.892;2023-05-07T10:15:46;22.63;;;17.73;;
53281;SDS011;39167;52.794;6.892;2023-05-07T10:18:13;20.05;;;16.88;;
53281;SDS011;39167;52.794;6.892;2023-05-07T10:20:39;20.42;;;16.17;;
53281;SDS011;39167;52.794;6.892;2023-05-07T10:23:07;23.10;;;16.48;;
53281;SDS011;39167;52.794;6.892;2023-05-07T10:25:39;21.77;;;17.75;;
53281;SDS011;39167;52.794;6.892;2023-05-07T10:28:07;21.42;;;16.42;;
53281;SDS011;39167;52.794;6.892;2023-05-07T10:30:44;20.02;;;16.23;;
53281;SDS011;39167;52.794;6.892;2023-05-07T10:33:28;19.33;;;16.27;;
53281;SDS011;39167;52.794;6.892;2023-05-07T10:35:59;22.10;;;16.45;;
53281;SDS011;39167;52.794;6.892;2023-05-07T10:38:29;23.25;;;17.00;;
53281;SDS011;39167;52.794;6.892;2023-05-07T10:40:55;19.35;;;14.70;;
53281;SDS011;39167;52.794;6.892;2023-05-07T10:43:21;22.05;;;16.73;;
53281;SDS011;39167;52.794;6.892;2023-05-07T10:51:33;22.40;;;16.55;;
53281;SDS011;39167;52.794;6.892;2023-05-07T10:56:41;19.90;;;15.63;;
53281;SDS011;39167;52.794;6.892;2023-05-07T11:01:56;22.77;;;17.25;;
53281;SDS011;39167;52.794;6.892;2023-05-07T11:04:22;20.55;;;15.68;;
53281;SDS011;39167;52.794;6.892;2023-05-07T11:15:06;21.23;;;15.77;;
53281;SDS011;39167;52.794;6.892;2023-05-07T11:17:57;20.17;;;14.77;;
53281;SDS011;39167;52.794;6.892;2023-05-07T11:25:59;21.58;;;16.95;;
53281;SDS011;39167;52.794;6.892;2023-05-07T11:28:27;19.63;;;14.93;;
53281;SDS011;39167;52.794;6.892;2023-05-07T11:30:53;18.45;;;15.60;;
53281;SDS011;39167;52.794;6.892;2023-05-07T11:33:19;22.63;;;16.30;;
53281;SDS011;39167;52.794;6.892;2023-05-07T11:35:45;21.10;;;16.83;;
53281;SDS011;39167;52.794;6.892;2023-05-07T11:38:12;21.00;;;15.38;;
53281;SDS011;39167;52.794;6.892;2023-05-07T11:40:55;19.15;;;14.20;;
53281;SDS011;39167;52.794;6.892;2023-05-07T11:43:22;19.25;;;14.82;;
53281;SDS011;39167;52.794;6.892;2023-05-07T11:45:48;19.83;;;15.23;;
53281;SDS011;39167;52.794;6.892;2023-05-07T11:48:16;19.65;;;15.27;;
53281;SDS011;39167;52.794;6.892;2023-05-07T11:50:59;18.95;;;15.93;;
53281;SDS011;39167;52.794;6.892;2023-05-07T11:53:36;17.52;;;14.23;;
53281;SDS011;39167;52.794;6.892;2023-05-07T11:56:06;21.02;;;16.20;;
53281;SDS011;39167;52.794;6.892;2023-05-07T11:58:36;17.08;;;14.05;;
53281;SDS011;39167;52.794;6.892;2023-05-07T12:01:02;21.35;;;16.55;;
53281;SDS011;39167;52.794;6.892;2023-05-07T12:03:27;19.73;;;14.55;;
53281;SDS011;39167;52.794;6.892;2023-05-07T12:05:53;18.33;;;14.85;;
53281;SDS011;39167;52.794;6.892;2023-05-07T12:08:20;17.40;;;13.70;;
53281;SDS011;39167;52.794;6.892;2023-05-07T12:10:48;21.40;;;15.20;;
53281;SDS011;39167;52.794;6.892;2023-05-07T12:13:19;16.42;;;13.68;;
53281;SDS011;39167;52.794;6.892;2023-05-07T12:15:45;17.80;;;13.88;;
53281;SDS011;39167;52.794;6.892;2023-05-07T12:18:11;15.52;;;13.43;;
53281;SDS011;39167;52.794;6.892;2023-05-07T12:20:38;19.52;;;14.85;;
53281;SDS011;39167;52.794;6.892;2023-05-07T12:23:04;16.15;;;13.48;;
53281;SDS011;39167;52.794;6.892;2023-05-07T12:25:37;16.02;;;13.30;;
53281;SDS011;39167;52.794;6.892;2023-05-07T12:28:04;15.38;;;12.80;;
53281;SDS011;39167;52.794;6.892;2023-05-07T12:30:40;17.50;;;13.77;;
53281;SDS011;39167;52.794;6.892;2023-05-07T12:33:07;15.75;;;13.20;;
53281;SDS011;39167;52.794;6.892;2023-05-07T12:35:37;16.73;;;13.98;;
53281;SDS011;39167;52.794;6.892;2023-05-07T12:38:12;16.42;;;13.75;;
53281;SDS011;39167;52.794;6.892;2023-05-07T12:40:49;14.80;;;12.65;;
53281;SDS011;39167;52.794;6.892;2023-05-07T12:45:45;14.90;;;13.00;;
53281;SDS011;39167;52.794;6.892;2023-05-07T12:48:13;16.10;;;12.50;;
53281;SDS011;39167;52.794;6.892;2023-05-07T12:50:39;15.40;;;13.77;;
53281;SDS011;39167;52.794;6.892;2023-05-07T12:53:05;17.02;;;13.02;;
53281;SDS011;39167;52.794;6.892;2023-05-07T12:55:43;17.60;;;13.98;;
53281;SDS011;39167;52.794;6.892;2023-05-07T12:58:17;16.52;;;12.50;;
53281;SDS011;39167;52.794;6.892;2023-05-07T13:00:48;13.73;;;12.02;;
53281;SDS011;39167;52.794;6.892;2023-05-07T13:03:28;14.52;;;12.30;;
53281;SDS011;39167;52.794;6.892;2023-05-07T13:05:57;15.57;;;13.90;;
53281;SDS011;39167;52.794;6.892;2023-05-07T13:08:27;13.52;;;12.07;;
53281;SDS011;39167;52.794;6.892;2023-05-07T13:13:21;14.50;;;12.35;;
53281;SDS011;39167;52.794;6.892;2023-05-07T13:15:47;13.70;;;12.05;;
53281;SDS011;39167;52.794;6.892;2023-05-07T13:18:13;15.32;;;12.88;;
53281;SDS011;39167;52.794;6.892;2023-05-07T13:20:39;15.20;;;12.75;;
53281;SDS011;39167;52.794;6.892;2023-05-07T13:23:05;14.45;;;12.23;;
53281;SDS011;39167;52.794;6.892;2023-05-07T13:25:31;13.23;;;11.35;;
53281;SDS011;39167;52.794;6.892;2023-05-07T13:27:57;14.25;;;11.43;;
53281;SDS011;39167;52.794;6.892;2023-05-07T13:30:23;15.15;;;12.48;;
53281;SDS011;39167;52.794;6.892;2023-05-07T13:32:49;14.50;;;12.82;;
53281;SDS011;39167;52.794;6.892;2023-05-07T13:35:15;15.35;;;13.75;;
53281;SDS011;39167;52.794;6.892;2023-05-07T13:37:41;16.33;;;14.52;;
53281;SDS011;39167;52.794;6.892;2023-05-07T13:40:07;15.18;;;13.57;;
53281;SDS011;39167;52.794;6.892;2023-05-07T13:42:33;16.77;;;13.75;;
53281;SDS011;39167;52.794;6.892;2023-05-07T13:44:59;13.98;;;12.57;;
53281;SDS011;39167;52.794;6.892;2023-05-07T13:47:25;12.95;;;11.57;;
53281;SDS011;39167;52.794;6.892;2023-05-07T13:49:51;15.73;;;12.90;;
53281;SDS011;39167;52.794;6.892;2023-05-07T13:52:17;14.98;;;12.02;;
53281;SDS011;39167;52.794;6.892;2023-05-07T13:54:42;14.00;;;12.40;;
53281;SDS011;39167;52.794;6.892;2023-05-07T13:57:08;13.57;;;11.63;;
53281;SDS011;39167;52.794;6.892;2023-05-07T13:59:34;14.60;;;12.30;;
53281;SDS011;39167;52.794;6.892;2023-05-07T14:02:00;14.10;;;12.60;;
53281;SDS011;39167;52.794;6.892;2023-05-07T14:04:25;14.43;;;12.95;;
53281;SDS011;39167;52.794;6.892;2023-05-07T14:06:51;13.45;;;11.55;;
53281;SDS011;39167;52.794;6.892;2023-05-07T14:09:17;15.10;;;11.93;;
53281;SDS011;39167;52.794;6.892;2023-05-07T14:11:43;13.07;;;11.75;;
53281;SDS011;39167;52.794;6.892;2023-05-07T14:14:08;13.00;;;11.02;;
53281;SDS011;39167;52.794;6.892;2023-05-07T14:16:37;13.75;;;10.93;;
53281;SDS011;39167;52.794;6.892;2023-05-07T14:19:02;12.90;;;11.18;;
53281;SDS011;39167;52.794;6.892;2023-05-07T14:21:28;13.32;;;12.00;;
53281;SDS011;39167;52.794;6.892;2023-05-07T14:23:55;13.75;;;12.32;;
53281;SDS011;39167;52.794;6.892;2023-05-07T14:26:21;12.90;;;11.50;;
53281;SDS011;39167;52.794;6.892;2023-05-07T14:28:48;12.63;;;11.15;;
53281;SDS011;39167;52.794;6.892;2023-05-07T14:31:14;11.45;;;10.20;;
53281;SDS011;39167;52.794;6.892;2023-05-07T14:33:42;13.20;;;10.60;;
53281;SDS011;39167;52.794;6.892;2023-05-07T14:36:07;12.77;;;11.48;;
53281;SDS011;39167;52.794;6.892;2023-05-07T14:38:33;11.88;;;10.13;;
53281;SDS011;39167;52.794;6.892;2023-05-07T14:40:59;11.10;;;10.00;;
53281;SDS011;39167;52.794;6.892;2023-05-07T14:43:25;11.93;;;9.57;;
53281;SDS011;39167;52.794;6.892;2023-05-07T14:45:50;11.82;;;9.52;;
53281;SDS011;39167;52.794;6.892;2023-05-07T14:48:17;12.88;;;10.45;;
53281;SDS011;39167;52.794;6.892;2023-05-07T14:50:42;12.70;;;9.95;;
53281;SDS011;39167;52.794;6.892;2023-05-07T14:53:08;12.07;;;10.48;;
53281;SDS011;39167;52.794;6.892;2023-05-07T14:55:34;14.77;;;11.65;;